createdAt,value
2022-12-07T00:00:22.806Z,3.80
2022-12-07T00:05:25.569Z,3.90
2022-12-07T00:10:29.688Z,3.90
2022-12-07T00:15:32.537Z,3.90
2022-12-07T00:20:35.418Z,3.80
2022-12-07T00:25:39.520Z,3.90
2022-12-07T00:30:42.251Z,3.80
2022-12-07T00:35:45.024Z,3.80
2022-12-07T00:41:00.257Z,3.80
2022-12-07T00:46:03.126Z,3.80
2022-12-07T00:51:06.472Z,3.70
2022-12-07T00:56:13.341Z,3.70
2022-12-07T01:01:16.094Z,3.80
2022-12-07T01:06:20.730Z,3.90
2022-12-07T01:11:26.797Z,3.90
2022-12-07T01:16:31.605Z,3.80
2022-12-07T01:21:38.445Z,3.80
2022-12-07T01:26:51.685Z,3.80
2022-12-07T01:50:57.580Z,3.90
2022-12-07T01:56:30.738Z,3.90
2022-12-07T02:02:29.466Z,3.90
2022-12-07T02:08:05.291Z,3.80
2022-12-07T02:13:42.717Z,3.90
2022-12-07T02:25:34.132Z,3.90
2022-12-07T02:31:26.441Z,3.80
2022-12-07T02:37:07.381Z,3.60
2022-12-07T02:42:33.170Z,3.40
2022-12-07T02:48:07.405Z,3.30
2022-12-07T02:54:10.739Z,3.10
2022-12-07T03:00:00.528Z,3.00
2022-12-07T03:05:55.632Z,3.00
2022-12-07T03:28:47.809Z,3.10
2022-12-07T03:34:35.586Z,3.10
2022-12-07T03:40:29.526Z,2.90
2022-12-07T03:46:03.930Z,2.70
2022-12-07T03:57:30.207Z,2.90
2022-12-07T04:02:54.656Z,2.90
2022-12-07T04:08:21.030Z,2.80
2022-12-07T04:13:59.441Z,2.80
2022-12-07T04:19:30.144Z,2.90
2022-12-07T04:24:56.593Z,3.00
2022-12-07T04:36:08.807Z,3.00
2022-12-07T04:42:19.785Z,2.80
2022-12-07T04:47:49.766Z,2.40
2022-12-07T04:52:58.838Z,2.50
2022-12-07T04:58:35.907Z,2.20
2022-12-07T05:04:13.972Z,1.80
2022-12-07T05:14:55.387Z,1.30
2022-12-07T05:20:21.286Z,1.40
2022-12-07T05:25:40.944Z,1.80
2022-12-07T05:31:00.950Z,1.70
2022-12-07T05:36:59.894Z,1.80
2022-12-07T05:48:15.328Z,2.30
2022-12-07T05:53:49.634Z,2.80
2022-12-07T05:59:25.864Z,2.70
2022-12-07T06:04:47.991Z,2.70
2022-12-07T06:09:57.052Z,2.80
2022-12-07T06:15:02.400Z,2.90
2022-12-07T06:20:26.084Z,3.00
2022-12-07T06:25:44.823Z,3.10
2022-12-07T06:30:47.572Z,3.10
2022-12-07T06:35:50.312Z,3.00
2022-12-07T06:40:54.377Z,3.20
2022-12-07T06:45:57.312Z,3.40
2022-12-07T06:51:00.223Z,3.60
2022-12-07T06:56:04.685Z,3.80
2022-12-07T07:01:11.546Z,3.80
2022-12-07T07:06:15.514Z,3.70
2022-12-07T07:11:19.793Z,3.80
2022-12-07T07:16:22.674Z,3.80
2022-12-07T07:21:25.547Z,3.70
2022-12-07T07:26:30.408Z,3.60
2022-12-07T07:31:36.308Z,3.50
2022-12-07T07:36:39.081Z,3.30
2022-12-07T07:41:41.812Z,3.10
2022-12-07T07:46:45.994Z,3.10
2022-12-07T07:51:48.712Z,3.10
2022-12-07T07:56:51.437Z,3.10
2022-12-07T08:01:55.744Z,3.20
2022-12-07T08:06:59.122Z,3.30
2022-12-07T08:12:01.886Z,3.40
2022-12-07T08:17:06.011Z,3.60
2022-12-07T08:22:08.801Z,3.70
2022-12-07T08:27:11.602Z,3.90
2022-12-07T08:32:15.693Z,4.10
2022-12-07T08:37:18.421Z,4.30
2022-12-07T08:42:22.997Z,4.40
2022-12-07T08:47:27.563Z,4.60
2022-12-07T08:52:30.913Z,5.10
2022-12-07T08:57:36.233Z,5.40
2022-12-07T09:02:41.454Z,5.80
2022-12-07T09:07:45.552Z,7.20
2022-12-07T09:12:48.472Z,6.60
2022-12-07T09:17:53.506Z,6.60
2022-12-07T09:22:56.287Z,6.30
2022-12-07T09:27:59.499Z,6.00
2022-12-07T09:33:03.962Z,6.20
2022-12-07T09:38:06.722Z,8.80
2022-12-07T09:43:15.246Z,10.10
2022-12-07T09:48:22.810Z,8.70
2022-12-07T09:53:29.324Z,7.50
2022-12-07T09:58:33.471Z,6.80
2022-12-07T10:03:40.635Z,7.60
2022-12-07T10:08:44.315Z,10.80
2022-12-07T10:13:49.916Z,11.20
2022-12-07T10:18:54.428Z,12.00
2022-12-07T10:24:05.187Z,14.50
2022-12-07T10:29:17.817Z,18.50
2022-12-07T10:34:26.101Z,17.50
2022-12-07T10:39:29.311Z,16.50
2022-12-07T10:44:34.091Z,13.30
2022-12-07T10:50:14.284Z,9.80
2022-12-07T10:55:25.728Z,8.30
2022-12-07T11:00:32.123Z,7.70
2022-12-07T11:05:47.086Z,7.20
2022-12-07T11:10:57.254Z,6.90
2022-12-07T11:16:09.420Z,6.80
2022-12-07T11:21:22.211Z,6.70
2022-12-07T11:26:53.478Z,6.90
2022-12-07T11:32:07.502Z,7.10
2022-12-07T11:37:15.560Z,7.00
2022-12-07T11:42:23.601Z,6.70
2022-12-07T11:47:36.804Z,6.20
2022-12-07T11:52:46.910Z,5.60
2022-12-07T11:58:00.278Z,5.30
2022-12-07T12:03:10.898Z,5.10
2022-12-07T12:19:35.243Z,5.20
2022-12-07T12:24:41.695Z,6.70
2022-12-07T12:29:45.746Z,7.80
2022-12-07T12:35:05.526Z,7.00
2022-12-07T12:40:48.679Z,6.30
2022-12-07T12:46:34.626Z,5.80
2022-12-07T12:51:40.632Z,5.70
2022-12-07T12:56:51.760Z,5.40
2022-12-07T13:01:58.104Z,5.20
2022-12-07T13:07:00.955Z,5.20
2022-12-07T13:12:13.364Z,5.00
2022-12-07T13:17:55.444Z,4.60
2022-12-07T13:23:01.199Z,4.20
2022-12-07T13:28:11.223Z,4.10
2022-12-07T13:33:15.407Z,4.00
2022-12-07T13:38:26.926Z,3.90
2022-12-07T13:43:29.760Z,4.00
2022-12-07T13:48:34.460Z,3.90
2022-12-07T13:53:48.725Z,3.80
2022-12-07T13:58:51.607Z,3.70
2022-12-07T14:03:54.409Z,3.90
2022-12-07T14:09:19.027Z,4.00
2022-12-07T14:14:28.526Z,4.00
2022-12-07T14:19:51.515Z,4.10
2022-12-07T14:25:04.023Z,4.20
2022-12-07T14:30:08.413Z,4.30
2022-12-07T14:35:13.303Z,4.20
2022-12-07T14:40:20.031Z,4.20
2022-12-07T14:45:24.291Z,4.10
2022-12-07T14:50:27.179Z,4.00
2022-12-07T14:55:32.825Z,4.00
2022-12-07T15:00:35.979Z,4.00
2022-12-07T15:05:39.497Z,3.80
2022-12-07T15:10:43.565Z,3.90
2022-12-07T15:15:46.605Z,3.90
2022-12-07T15:20:49.826Z,4.00
2022-12-07T15:25:53.903Z,4.10
2022-12-07T15:30:56.689Z,4.20
2022-12-07T15:36:01.646Z,4.20
2022-12-07T15:41:05.931Z,4.40
2022-12-07T15:46:08.840Z,4.60
2022-12-07T15:51:11.732Z,4.70
2022-12-07T15:56:15.839Z,4.80
2022-12-07T16:01:20.259Z,4.90
2022-12-07T16:06:23.269Z,4.70
2022-12-07T16:11:27.445Z,4.70
2022-12-07T16:16:31.427Z,4.60
2022-12-07T16:21:34.288Z,4.50
2022-12-07T16:26:38.817Z,4.40
2022-12-07T16:31:41.929Z,4.40
2022-12-07T16:42:09.044Z,4.20
2022-12-07T16:47:11.923Z,4.10
2022-12-07T16:52:20.381Z,4.10
2022-12-07T16:57:24.979Z,4.10
2022-12-07T17:02:27.801Z,4.10
2022-12-07T17:07:30.550Z,4.20
2022-12-07T17:12:34.650Z,4.40
2022-12-07T17:17:37.609Z,4.50
2022-12-07T17:22:40.464Z,4.50
2022-12-07T17:27:45.152Z,4.60
2022-12-07T17:32:47.903Z,4.60
2022-12-07T17:37:51.304Z,4.50
2022-12-07T17:42:55.544Z,4.40
2022-12-07T17:47:58.478Z,4.30
2022-12-07T17:53:13.008Z,4.30
2022-12-07T17:58:17.141Z,4.40
2022-12-07T18:03:19.943Z,4.50
2022-12-07T18:08:22.779Z,4.50
2022-12-07T18:13:38.874Z,4.50
2022-12-07T18:18:45.353Z,4.50
2022-12-07T18:23:53.228Z,4.60
2022-12-07T18:28:57.415Z,4.60
2022-12-07T18:34:04.825Z,4.50
2022-12-07T18:39:08.369Z,4.20
2022-12-07T18:44:14.132Z,4.10
2022-12-07T18:49:17.041Z,3.90
2022-12-07T18:54:19.861Z,3.70
2022-12-07T18:59:41.549Z,3.60
2022-12-07T19:04:44.657Z,3.80
2022-12-07T19:09:47.488Z,3.90
2022-12-07T19:14:51.720Z,3.70
2022-12-07T19:19:54.537Z,3.60
2022-12-07T19:24:57.363Z,3.50
2022-12-07T19:37:34.777Z,3.50
2022-12-07T20:20:29.225Z,4.10
2022-12-07T20:25:38.195Z,4.10
2022-12-07T20:31:11.844Z,4.00
2022-12-07T20:42:44.003Z,4.00
2022-12-07T21:01:07.635Z,3.80
2022-12-07T21:06:37.286Z,3.80
2022-12-07T21:11:44.245Z,3.60
2022-12-07T21:17:15.660Z,3.60
2022-12-07T21:22:21.749Z,3.70
2022-12-07T21:39:51.413Z,3.70
2022-12-07T21:51:01.507Z,3.70
2022-12-07T21:57:22.609Z,3.70
2022-12-07T23:32:04.528Z,4.10
2022-12-07T23:56:01.515Z,4.20
